createdAt,value
2019-04-01T00:01:56.861Z,98577.11
2019-04-01T00:04:27.513Z,98578.65
2019-04-01T00:06:57.765Z,98585.48
2019-04-01T00:09:30.652Z,98583.72
2019-04-01T00:12:02.896Z,98575.33
2019-04-01T00:14:34.478Z,98580.12
2019-04-01T00:17:05.721Z,98580.66
2019-04-01T00:19:36.384Z,98574.05
2019-04-01T00:22:06.717Z,98570.67
2019-04-01T00:24:36.950Z,98567.27
2019-04-01T00:27:07.261Z,98572.27
2019-04-01T00:29:38.273Z,98575.72
2019-04-01T00:32:08.940Z,98571.20
2019-04-01T00:34:39.540Z,98571.47
2019-04-01T00:37:10.274Z,98568.75
2019-04-01T00:39:41.416Z,98564.80
2019-04-01T00:42:31.003Z,98571.09
2019-04-01T00:45:01.731Z,98577.55
2019-04-01T00:47:32.367Z,98572.66
2019-04-01T00:50:02.626Z,98570.09
2019-04-01T00:52:32.988Z,98569.67
2019-04-01T00:55:03.281Z,98572.70
2019-04-01T00:57:33.548Z,98578.02
2019-04-01T01:00:04.801Z,98578.53
2019-04-01T01:02:35.259Z,98578.16
2019-04-01T01:05:06.111Z,98576.37
2019-04-01T01:07:37.209Z,98575.34
2019-04-01T01:10:08.729Z,98577.03
2019-04-01T01:12:38.973Z,98577.80
2019-04-01T01:15:09.388Z,98573.63
2019-04-01T01:17:39.637Z,98580.28
2019-04-01T01:20:10.281Z,98582.80
2019-04-01T01:22:41.144Z,98571.98
2019-04-01T01:25:11.470Z,98579.59
2019-04-01T01:27:42.631Z,98575.41
2019-04-01T01:30:13.075Z,98590.78
2019-04-01T01:32:43.327Z,98583.02
2019-04-01T01:35:13.599Z,98586.81
2019-04-01T01:37:44.902Z,98581.70
2019-04-01T01:40:15.158Z,98580.02
2019-04-01T01:42:45.452Z,98577.92
2019-04-01T01:45:15.717Z,98582.59
2019-04-01T01:47:45.995Z,98581.74
2019-04-01T01:50:16.263Z,98581.55
2019-04-01T01:52:46.537Z,98581.55
2019-04-01T01:55:16.800Z,98581.19
2019-04-01T01:57:46.994Z,98578.30
2019-04-01T02:00:18.193Z,98577.08
2019-04-01T02:02:48.762Z,98577.84
2019-04-01T02:05:18.944Z,98574.52
2019-04-01T02:07:49.613Z,98579.45
2019-04-01T02:10:20.525Z,98580.22
2019-04-01T02:12:50.905Z,98584.19
2019-04-01T02:15:21.160Z,98583.51
2019-04-01T02:19:37.133Z,98575.47
2019-04-01T02:22:07.424Z,98579.08
2019-04-01T02:24:37.794Z,98584.45
2019-04-01T02:27:08.012Z,98582.11
2019-04-01T02:29:38.302Z,98584.63
2019-04-01T02:32:08.651Z,98583.98
2019-04-01T02:34:38.951Z,98579.71
2019-04-01T02:37:09.216Z,98585.02
2019-04-01T02:39:39.676Z,98582.44
2019-04-01T02:42:09.860Z,98579.50
2019-04-01T02:44:40.144Z,98577.05
2019-04-01T02:47:10.409Z,98580.09
2019-04-01T02:49:41.773Z,98582.83
2019-04-01T02:52:12.091Z,98577.60
2019-04-01T02:54:42.421Z,98587.02
2019-04-01T02:57:12.730Z,98581.13
2019-04-01T02:59:43.016Z,98578.64
2019-04-01T03:02:13.635Z,98578.66
2019-04-01T03:04:43.872Z,98572.00
2019-04-01T03:07:15.164Z,98578.82
2019-04-01T03:09:45.451Z,98579.59
2019-04-01T03:12:15.715Z,98580.33
2019-04-01T03:14:46.439Z,98576.14
2019-04-01T03:17:16.672Z,98576.70
2019-04-01T03:19:47.264Z,98583.87
2019-04-01T03:22:17.534Z,98581.16
2019-04-01T03:24:48.120Z,98583.87
2019-04-01T03:27:18.541Z,98588.59
2019-04-01T03:29:49.136Z,98589.55
2019-04-01T03:32:19.731Z,98585.25
2019-04-01T03:34:50.358Z,98591.22
2019-04-01T03:37:20.634Z,98597.63
2019-04-01T03:39:50.889Z,98594.97
2019-04-01T03:42:21.307Z,98596.48
2019-04-01T03:44:55.132Z,98590.04
2019-04-01T03:47:23.583Z,98589.64
2019-04-01T03:49:53.873Z,98596.26
2019-04-01T03:52:24.197Z,98595.89
2019-04-01T03:54:54.446Z,98598.91
2019-04-01T03:57:24.691Z,98600.19
2019-04-01T03:59:55.537Z,98597.63
2019-04-01T04:02:26.275Z,98601.19
2019-04-01T04:04:56.539Z,98599.45
2019-04-01T04:07:27.088Z,98596.41
2019-04-01T04:09:57.284Z,98601.15
2019-04-01T04:12:27.608Z,98600.19
2019-04-01T04:14:58.204Z,98603.98
2019-04-01T04:17:28.860Z,98603.38
2019-04-01T04:19:59.107Z,98605.61
2019-04-01T04:22:29.892Z,98616.39
2019-04-01T04:25:00.589Z,98615.61
2019-04-01T04:27:30.949Z,98611.83
2019-04-01T04:30:03.116Z,98618.08
2019-04-01T04:32:33.362Z,98616.16
2019-04-01T04:35:03.943Z,98618.20
2019-04-01T04:37:34.795Z,98618.20
2019-04-01T04:40:05.703Z,98620.31
2019-04-01T04:42:36.283Z,98617.06
2019-04-01T04:45:06.599Z,98620.08
2019-04-01T04:47:36.985Z,98620.19
2019-04-01T04:50:07.214Z,98623.75
2019-04-01T04:52:37.844Z,98620.80
2019-04-01T04:55:08.089Z,98618.33
2019-04-01T04:57:38.327Z,98616.64
2019-04-01T05:00:09.252Z,98621.53
2019-04-01T05:02:40.232Z,98613.77
2019-04-01T05:05:10.768Z,98619.13
2019-04-01T05:07:41.049Z,98616.11
2019-04-01T05:10:11.392Z,98625.12
2019-04-01T05:12:42.405Z,98622.08
2019-04-01T05:15:12.626Z,98617.66
2019-04-01T05:17:42.852Z,98616.88
2019-04-01T05:20:16.354Z,98618.69
2019-04-01T05:22:47.016Z,98622.84
2019-04-01T05:25:17.951Z,98626.64
2019-04-01T05:27:49.874Z,98631.02
2019-04-01T05:30:20.407Z,98632.54
2019-04-01T05:32:52.940Z,98635.05
2019-04-01T05:35:25.321Z,98641.66
2019-04-01T05:37:57.102Z,98640.16
2019-04-01T05:40:27.735Z,98641.23
2019-04-01T05:42:58.040Z,98642.63
2019-04-01T05:45:28.625Z,98645.33
2019-04-01T05:47:59.665Z,98648.77
2019-04-01T05:50:29.954Z,98645.02
2019-04-01T05:53:00.221Z,98646.39
2019-04-01T05:55:31.323Z,98650.13
2019-04-01T05:58:02.002Z,98648.55
2019-04-01T06:00:42.809Z,98656.16
2019-04-01T06:03:13.448Z,98659.30
2019-04-01T06:05:43.815Z,98659.33
2019-04-01T06:08:14.109Z,98665.88
2019-04-01T06:10:44.931Z,98663.08
2019-04-01T06:13:15.543Z,98665.97
2019-04-01T06:15:45.820Z,98660.52
2019-04-01T06:18:16.106Z,98666.38
2019-04-01T06:20:46.882Z,98669.83
2019-04-01T06:23:17.223Z,98667.48
2019-04-01T06:25:48.411Z,98672.80
2019-04-01T06:28:18.729Z,98665.59
2019-04-01T06:30:50.027Z,98669.14
2019-04-01T06:33:20.607Z,98669.31
2019-04-01T06:35:51.212Z,98663.73
2019-04-01T06:38:21.461Z,98662.96
2019-04-01T06:40:52.788Z,98663.80
2019-04-01T06:43:23.525Z,98659.33
2019-04-01T06:45:53.920Z,98661.50
2019-04-01T06:48:24.526Z,98661.09
2019-04-01T06:50:55.759Z,98664.09
2019-04-01T06:53:26.225Z,98656.11
2019-04-01T06:55:56.635Z,98659.53
2019-04-01T06:58:27.313Z,98658.18
2019-04-01T07:00:58.205Z,98659.78
2019-04-01T07:03:29.196Z,98668.04
2019-04-01T07:06:02.481Z,98667.05
2019-04-01T07:08:35.502Z,98669.30
2019-04-01T07:11:06.396Z,98669.27
2019-04-01T07:13:40.055Z,98668.27
2019-04-01T07:16:15.485Z,98664.86
2019-04-01T07:18:41.289Z,98672.99
2019-04-01T07:21:11.564Z,98672.63
2019-04-01T07:23:42.149Z,98669.78
2019-04-01T07:26:12.405Z,98669.19
2019-04-01T07:28:43.318Z,98668.14
2019-04-01T07:31:14.009Z,98668.98
2019-04-01T07:33:44.649Z,98669.59
2019-04-01T07:36:15.804Z,98675.19
2019-04-01T07:38:46.641Z,98676.25
2019-04-01T07:41:16.904Z,98670.84
2019-04-01T07:43:47.296Z,98668.45
2019-04-01T07:46:17.565Z,98670.69
2019-04-01T07:48:47.869Z,98678.53
2019-04-01T07:51:19.039Z,98675.05
2019-04-01T07:53:49.724Z,98665.52
2019-04-01T07:56:19.981Z,98663.94
2019-04-01T07:58:50.716Z,98665.91
2019-04-01T08:01:21.917Z,98671.20
2019-04-01T08:03:52.731Z,98663.79
2019-04-01T08:06:22.990Z,98669.66
2019-04-01T08:08:53.356Z,98665.52
2019-04-01T08:11:24.621Z,98664.28
2019-04-01T08:13:55.821Z,98661.88
2019-04-01T08:16:27.742Z,98664.70
2019-04-01T08:18:58.521Z,98666.30
2019-04-01T08:21:30.190Z,98662.30
2019-04-01T08:24:00.812Z,98659.19
2019-04-01T08:26:31.096Z,98662.25
2019-04-01T08:29:01.644Z,98659.47
2019-04-01T08:31:32.191Z,98656.66
2019-04-01T08:34:02.623Z,98658.12
2019-04-01T08:36:34.348Z,98658.12
2019-04-01T08:39:06.938Z,98662.66
2019-04-01T08:41:37.314Z,98667.16
2019-04-01T08:44:07.557Z,98663.60
2019-04-01T08:46:38.424Z,98656.33
2019-04-01T08:49:08.749Z,98661.27
2019-04-01T08:51:39.026Z,98662.00
2019-04-01T08:54:10.346Z,98656.21
2019-04-01T08:56:47.129Z,98658.47
2019-04-01T08:59:17.598Z,98656.80
2019-04-01T09:01:48.478Z,98655.39
2019-04-01T09:04:18.899Z,98654.13
2019-04-01T09:06:49.248Z,98654.48
2019-04-01T09:09:20.250Z,98660.70
2019-04-01T09:11:50.904Z,98649.04
2019-04-01T09:14:22.285Z,98649.84
2019-04-01T09:16:53.381Z,98647.47
2019-04-01T09:19:23.687Z,98646.10
2019-04-01T09:21:54.459Z,98643.97
2019-04-01T09:24:24.736Z,98645.44
2019-04-01T09:26:54.938Z,98637.28
2019-04-01T09:29:25.184Z,98635.73
2019-04-01T09:31:55.396Z,98634.85
2019-04-01T09:34:26.060Z,98643.38
2019-04-01T09:36:56.378Z,98634.38
2019-04-01T09:39:27.453Z,98634.81
2019-04-01T09:41:57.760Z,98629.03
2019-04-01T09:44:36.751Z,98623.28
2019-04-01T09:47:00.124Z,98627.39
2019-04-01T09:49:30.443Z,98621.55
2019-04-01T09:52:03.760Z,98628.70
2019-04-01T09:54:32.729Z,98620.20
2019-04-01T09:57:16.556Z,98615.91
2019-04-01T09:59:36.672Z,98608.90
2019-04-01T10:02:06.980Z,98611.58
2019-04-01T10:04:37.333Z,98608.03
2019-04-01T10:07:07.921Z,98612.17
2019-04-01T10:09:38.522Z,98606.84
2019-04-01T10:12:08.853Z,98608.49
2019-04-01T10:14:39.224Z,98603.97
2019-04-01T10:17:09.466Z,98598.23
2019-04-01T10:19:39.776Z,98601.66
2019-04-01T10:22:10.011Z,98598.73
2019-04-01T10:24:40.486Z,98600.64
2019-04-01T10:27:10.807Z,98597.02
2019-04-01T10:29:41.053Z,98597.22
2019-04-01T10:32:12.262Z,98593.95
2019-04-01T10:34:42.604Z,98593.27
2019-04-01T10:37:12.857Z,98576.23
2019-04-01T10:39:44.859Z,98575.19
2019-04-01T10:42:16.503Z,98571.32
2019-04-01T10:44:46.783Z,98571.50
2019-04-01T10:47:17.121Z,98567.28
2019-04-01T10:49:47.727Z,98561.79
2019-04-01T10:52:18.116Z,98558.72
2019-04-01T10:54:48.404Z,98560.30
2019-04-01T10:57:18.710Z,98555.23
2019-04-01T10:59:48.905Z,98552.89
2019-04-01T11:02:19.149Z,98544.75
2019-04-01T11:04:49.788Z,98547.88
2019-04-01T11:07:20.013Z,98544.60
2019-04-01T11:09:50.518Z,98547.22
2019-04-01T11:12:20.725Z,98551.30
2019-04-01T11:14:51.974Z,98552.27
2019-04-01T11:17:22.356Z,98547.13
2019-04-01T11:19:52.547Z,98554.23
2019-04-01T11:22:22.987Z,98549.47
2019-04-01T11:24:53.237Z,98548.52
2019-04-01T11:27:23.451Z,98543.83
2019-04-01T11:29:54.224Z,98548.15
2019-04-01T11:32:24.780Z,98539.68
2019-04-01T11:34:56.214Z,98540.60
2019-04-01T11:37:26.609Z,98533.98
2019-04-01T11:39:56.871Z,98537.70
2019-04-01T11:42:27.117Z,98543.25
2019-04-01T11:44:57.279Z,98536.49
2019-04-01T11:47:28.894Z,98528.03
2019-04-01T11:49:59.117Z,98531.41
2019-04-01T11:52:29.382Z,98531.17
2019-04-01T11:54:59.700Z,98523.59
2019-04-01T11:57:29.911Z,98526.23
2019-04-01T12:00:00.478Z,98525.26
2019-04-01T12:02:30.839Z,98519.97
2019-04-01T12:05:02.397Z,98518.16
2019-04-01T12:07:33.246Z,98509.56
2019-04-01T12:10:07.309Z,98504.02
2019-04-01T12:12:35.948Z,98499.39
2019-04-01T12:15:11.640Z,98497.86
2019-04-01T12:17:41.805Z,98490.89
2019-04-01T12:20:12.170Z,98492.23
2019-04-01T12:22:45.973Z,98484.91
2019-04-01T12:25:15.942Z,98487.16
2019-04-01T12:27:46.165Z,98479.06
2019-04-01T12:30:16.730Z,98469.56
2019-04-01T12:32:47.010Z,98463.58
2019-04-01T12:35:17.263Z,98452.83
2019-04-01T12:37:47.842Z,98447.29
2019-04-01T12:40:18.349Z,98451.70
2019-04-01T12:42:50.779Z,98453.09
2019-04-01T12:45:20.868Z,98448.59
2019-04-01T12:47:51.090Z,98449.67
2019-04-01T12:50:21.308Z,98442.05
2019-04-01T12:52:51.837Z,98443.88
2019-04-01T12:55:22.369Z,98439.31
2019-04-01T12:57:52.630Z,98439.04
2019-04-01T13:00:23.096Z,98433.27
2019-04-01T13:02:53.329Z,98430.14
2019-04-01T13:05:23.530Z,98429.22
2019-04-01T13:07:54.336Z,98419.34
2019-04-01T13:10:24.709Z,98416.19
2019-04-01T13:12:54.912Z,98406.19
2019-04-01T13:15:25.098Z,98408.78
2019-04-01T13:17:55.699Z,98403.77
2019-04-01T13:20:37.218Z,98398.20
2019-04-01T13:22:57.928Z,98388.50
2019-04-01T13:25:28.467Z,98387.84
2019-04-01T13:27:58.701Z,98385.89
2019-04-01T13:30:28.901Z,98389.74
2019-04-01T13:32:59.158Z,98378.84
2019-04-01T13:35:29.418Z,98377.06
2019-04-01T13:37:59.736Z,98374.94
2019-04-01T13:40:29.980Z,98366.91
2019-04-01T13:43:00.511Z,98362.05
2019-04-01T13:45:31.883Z,98358.17
2019-04-01T13:48:02.695Z,98362.23
2019-04-01T13:50:32.945Z,98357.95
2019-04-01T13:53:04.550Z,98351.60
2019-04-01T13:55:34.792Z,98346.78
2019-04-01T13:58:05.020Z,98352.81
2019-04-01T14:00:35.365Z,98357.03
2019-04-01T14:03:05.747Z,98344.11
2019-04-01T14:05:36.613Z,98343.22
2019-04-01T14:08:06.893Z,98336.25
2019-04-01T14:10:40.385Z,98334.16
2019-04-01T14:13:09.159Z,98329.48
2019-04-01T14:15:39.790Z,98329.77
2019-04-01T14:18:10.745Z,98330.97
2019-04-01T14:20:42.125Z,98324.50
2019-04-01T14:23:12.453Z,98323.11
2019-04-01T14:25:43.205Z,98320.93
2019-04-01T14:28:13.679Z,98314.55
2019-04-01T14:30:43.916Z,98314.27
2019-04-01T14:33:14.556Z,98310.16
2019-04-01T14:35:45.246Z,98310.13
2019-04-01T14:38:16.443Z,98310.98
2019-04-01T14:40:47.408Z,98311.39
2019-04-01T14:43:17.735Z,98313.83
2019-04-01T14:45:48.453Z,98312.93
2019-04-01T14:48:19.070Z,98315.58
2019-04-01T14:50:50.214Z,98305.59
2019-04-01T14:53:20.504Z,98305.88
2019-04-01T14:55:51.225Z,98299.80
2019-04-01T14:58:21.464Z,98296.30
2019-04-01T15:00:52.880Z,98287.16
2019-04-01T15:03:23.148Z,98283.57
2019-04-01T15:05:53.462Z,98277.69
2019-04-01T15:08:24.030Z,98277.28
2019-04-01T15:10:54.666Z,98268.72
2019-04-01T15:13:24.998Z,98266.64
2019-04-01T15:15:55.760Z,98265.64
2019-04-01T15:18:27.308Z,98266.20
2019-04-01T15:20:57.691Z,98270.20
2019-04-01T15:23:28.423Z,98265.45
2019-04-01T15:25:58.740Z,98258.92
2019-04-01T15:28:30.602Z,98262.68
2019-04-01T15:31:02.128Z,98260.36
2019-04-01T15:33:32.451Z,98261.09
2019-04-01T15:36:04.279Z,98264.11
2019-04-01T15:38:34.873Z,98260.43
2019-04-01T15:41:05.248Z,98251.05
2019-04-01T15:43:35.620Z,98251.98
2019-04-01T15:46:07.003Z,98249.83
2019-04-01T15:48:37.268Z,98245.92
2019-04-01T15:51:07.914Z,98245.95
2019-04-01T15:53:38.433Z,98236.76
2019-04-01T15:56:09.037Z,98231.52
2019-04-01T15:58:39.378Z,98222.44
2019-04-01T16:01:10.846Z,98223.06
2019-04-01T16:03:41.157Z,98225.55
2019-04-01T16:06:12.252Z,98220.73
2019-04-01T16:08:42.452Z,98220.28
2019-04-01T16:11:13.477Z,98223.08
2019-04-01T16:13:43.801Z,98214.62
2019-04-01T16:16:14.698Z,98207.38
2019-04-01T16:18:45.046Z,98211.46
2019-04-01T16:21:15.351Z,98208.74
2019-04-01T16:23:47.134Z,98209.62
2019-04-01T16:26:17.557Z,98203.63
2019-04-01T16:28:47.893Z,98199.04
2019-04-01T16:31:18.744Z,98200.55
2019-04-01T16:33:49.301Z,98198.41
2019-04-01T16:36:19.528Z,98200.34
2019-04-01T16:38:50.056Z,98201.34
2019-04-01T16:41:21.013Z,98205.50
2019-04-01T16:43:51.633Z,98204.47
2019-04-01T16:46:22.162Z,98200.07
2019-04-01T16:48:52.417Z,98208.34
2019-04-01T16:51:22.854Z,98198.77
2019-04-01T16:53:55.943Z,98196.64
2019-04-01T16:56:25.125Z,98198.80
2019-04-01T16:58:55.727Z,98202.42
2019-04-01T17:01:26.055Z,98198.70
2019-04-01T17:03:56.341Z,98190.33
2019-04-01T17:06:26.606Z,98193.05
2019-04-01T17:08:56.965Z,98195.26
2019-04-01T17:11:27.880Z,98195.39
2019-04-01T17:13:58.518Z,98203.64
2019-04-01T17:16:28.843Z,98201.42
2019-04-01T17:18:59.214Z,98200.93
2019-04-01T17:21:30.511Z,98198.77
2019-04-01T17:24:01.835Z,98200.88
2019-04-01T17:26:32.199Z,98208.61
2019-04-01T17:29:02.436Z,98207.33
2019-04-01T17:31:33.026Z,98206.23
2019-04-01T17:34:03.439Z,98209.05
2019-04-01T17:36:33.767Z,98203.38
2019-04-01T17:39:05.886Z,98205.44
2019-04-01T17:41:38.081Z,98212.23
2019-04-01T17:44:08.465Z,98209.05
2019-04-01T17:46:39.281Z,98218.05
2019-04-01T17:49:09.613Z,98214.36
2019-04-01T17:51:39.928Z,98217.39
2019-04-01T17:54:10.191Z,98213.36
2019-04-01T17:56:40.465Z,98219.42
2019-04-01T17:59:12.892Z,98215.48
2019-04-01T18:01:43.006Z,98219.36
2019-04-01T18:04:13.529Z,98221.02
2019-04-01T18:06:45.200Z,98219.78
2019-04-01T18:09:15.433Z,98218.54
2019-04-01T18:11:46.117Z,98219.72
2019-04-01T18:14:16.718Z,98218.19
2019-04-01T18:16:46.974Z,98220.23
2019-04-01T18:19:17.716Z,98221.21
2019-04-01T18:21:48.077Z,98218.88
2019-04-01T18:24:18.785Z,98224.17
2019-04-01T18:26:49.426Z,98219.33
2019-04-01T18:29:20.672Z,98219.48
2019-04-01T18:31:51.247Z,98222.31
2019-04-01T18:34:22.190Z,98224.80
2019-04-01T18:36:52.612Z,98226.32
2019-04-01T18:39:22.844Z,98228.50
2019-04-01T18:41:54.094Z,98227.09
2019-04-01T18:44:25.424Z,98234.14
2019-04-01T18:46:55.838Z,98231.30
2019-04-01T18:49:26.433Z,98229.08
2019-04-01T18:51:57.196Z,98236.52
2019-04-01T18:54:27.480Z,98235.18
2019-04-01T18:56:58.351Z,98243.60
2019-04-01T18:59:28.916Z,98248.97
2019-04-01T19:02:00.057Z,98247.64
2019-04-01T19:04:34.006Z,98249.22
2019-04-01T19:07:04.236Z,98248.78
2019-04-01T19:09:34.963Z,98250.99
2019-04-01T19:12:06.860Z,98249.53
2019-04-01T19:14:37.959Z,98249.65
2019-04-01T19:17:08.346Z,98246.84
2019-04-01T19:19:40.331Z,98244.97
2019-04-01T19:22:10.947Z,98243.17
2019-04-01T19:24:41.587Z,98248.58
2019-04-01T19:27:12.242Z,98251.67
2019-04-01T19:29:43.322Z,98252.08
2019-04-01T19:32:14.804Z,98251.41
2019-04-01T19:34:45.391Z,98260.32
2019-04-01T19:37:18.181Z,98258.77
2019-04-01T19:39:48.460Z,98265.23
2019-04-01T19:42:19.487Z,98265.07
2019-04-01T19:44:50.081Z,98264.19
2019-04-01T19:47:21.389Z,98266.47
2019-04-01T19:49:52.163Z,98264.71
2019-04-01T19:52:22.803Z,98266.91
2019-04-01T19:54:53.738Z,98269.26
2019-04-01T19:57:24.920Z,98269.76
2019-04-01T19:59:55.823Z,98269.05
2019-04-01T20:02:27.446Z,98275.20
2019-04-01T20:04:58.728Z,98270.27
2019-04-01T20:07:29.069Z,98271.72
2019-04-01T20:10:00.063Z,98267.81
2019-04-01T20:12:30.895Z,98269.02
2019-04-01T20:15:02.069Z,98272.48
2019-04-01T20:17:32.718Z,98271.55
2019-04-01T20:20:02.984Z,98274.14
2019-04-01T20:22:33.320Z,98270.69
2019-04-01T20:25:05.307Z,98271.81
2019-04-01T20:27:35.673Z,98271.28
2019-04-01T20:30:09.108Z,98275.98
2019-04-01T20:32:39.692Z,98273.52
2019-04-01T20:35:22.586Z,98271.43
2019-04-01T20:37:42.559Z,98263.59
2019-04-01T20:40:13.743Z,98264.98
2019-04-01T20:42:44.014Z,98269.61
2019-04-01T20:45:15.538Z,98272.46
2019-04-01T20:47:45.853Z,98271.80
2019-04-01T20:50:16.441Z,98269.33
2019-04-01T20:52:50.127Z,98278.01
2019-04-01T20:55:20.808Z,98271.94
2019-04-01T20:57:52.583Z,98271.12
2019-04-01T21:00:23.232Z,98266.92
2019-04-01T21:02:54.007Z,98265.52
2019-04-01T21:05:24.552Z,98266.02
2019-04-01T21:07:54.991Z,98264.61
2019-04-01T21:10:25.246Z,98270.80
2019-04-01T21:12:57.127Z,98269.02
2019-04-01T21:15:27.793Z,98266.69
2019-04-01T21:17:58.061Z,98262.95
2019-04-01T21:20:28.536Z,98261.49
2019-04-01T21:22:58.812Z,98255.05
2019-04-01T21:25:30.118Z,98260.89
2019-04-01T21:28:00.528Z,98259.33
2019-04-01T21:30:30.930Z,98258.78
2019-04-01T21:33:02.604Z,98257.60
2019-04-01T21:35:32.881Z,98250.81
2019-04-01T21:38:04.106Z,98256.80
2019-04-01T21:40:34.999Z,98257.81
2019-04-01T21:43:05.433Z,98256.27
2019-04-01T21:45:36.099Z,98257.88
2019-04-01T21:48:06.631Z,98254.99
2019-04-01T21:50:37.531Z,98257.20
2019-04-01T21:53:08.293Z,98250.14
2019-04-01T21:55:38.925Z,98250.66
2019-04-01T21:58:09.198Z,98252.86
2019-04-01T22:00:56.547Z,98255.78
2019-04-01T22:03:29.294Z,98252.50
2019-04-01T22:05:59.944Z,98251.79
2019-04-01T22:08:30.862Z,98256.05
2019-04-01T22:11:01.244Z,98252.30
2019-04-01T22:13:32.192Z,98253.16
2019-04-01T22:16:02.544Z,98255.23
2019-04-01T22:18:33.074Z,98244.34
2019-04-01T22:21:03.683Z,98244.34
2019-04-01T22:23:34.200Z,98250.14
2019-04-01T22:26:05.441Z,98248.22
2019-04-01T22:28:35.792Z,98244.58
2019-04-01T22:31:06.010Z,98246.52
2019-04-01T22:33:36.572Z,98242.89
2019-04-01T22:36:06.861Z,98246.05
2019-04-01T22:38:37.162Z,98243.64
2019-04-01T22:41:07.345Z,98242.66
2019-04-01T22:43:38.036Z,98244.00
2019-04-01T22:46:08.292Z,98242.91
2019-04-01T22:48:38.593Z,98239.87
2019-04-01T22:51:09.173Z,98243.38
2019-04-01T22:53:39.488Z,98238.64
2019-04-01T22:56:09.735Z,98237.42
2019-04-01T22:58:39.996Z,98246.86
2019-04-01T23:01:10.593Z,98233.29
2019-04-01T23:03:40.894Z,98232.45
2019-04-01T23:06:11.262Z,98230.98
2019-04-01T23:08:42.900Z,98222.14
2019-04-01T23:11:13.187Z,98225.52
2019-04-01T23:13:43.417Z,98220.67
2019-04-01T23:16:13.662Z,98219.20
2019-04-01T23:18:43.974Z,98214.50
2019-04-01T23:21:14.211Z,98209.63
2019-04-01T23:23:44.472Z,98210.27
2019-04-01T23:26:14.762Z,98208.05
2019-04-01T23:28:46.314Z,98208.30
2019-04-01T23:31:18.021Z,98205.88
2019-04-01T23:33:48.342Z,98207.46
2019-04-01T23:36:18.953Z,98210.23
2019-04-01T23:38:50.657Z,98209.14
2019-04-01T23:41:22.341Z,98205.53
2019-04-01T23:43:52.976Z,98211.10
2019-04-01T23:46:23.295Z,98204.30
2019-04-01T23:48:53.583Z,98201.30
2019-04-01T23:51:23.995Z,98202.98
2019-04-01T23:53:54.928Z,98187.34
2019-04-01T23:56:25.220Z,98191.59
2019-04-01T23:58:55.487Z,98188.96
